createdAt,value
2022-09-04T00:00:21.236Z,16.54
2022-09-04T00:03:33.660Z,16.58
2022-09-04T00:06:42.862Z,16.62
2022-09-04T00:09:58.320Z,16.71
2022-09-04T00:13:07.197Z,16.59
2022-09-04T00:16:14.837Z,16.37
2022-09-04T00:19:26.993Z,16.43
2022-09-04T00:22:36.072Z,16.51
2022-09-04T00:25:48.371Z,16.54
2022-09-04T00:28:55.197Z,16.59
2022-09-04T00:32:07.018Z,16.64
2022-09-04T00:35:15.982Z,16.56
2022-09-04T00:38:39.318Z,16.44
2022-09-04T00:41:59.393Z,16.54
2022-09-04T00:45:16.869Z,16.59
2022-09-04T00:48:39.606Z,16.70
2022-09-04T00:51:55.885Z,16.70
2022-09-04T00:55:17.156Z,16.63
2022-09-04T00:58:40.627Z,16.64
2022-09-04T01:01:47.275Z,16.58
2022-09-04T01:05:02.109Z,16.56
2022-09-04T01:08:16.435Z,16.63
2022-09-04T01:11:32.136Z,16.43
2022-09-04T01:14:42.984Z,16.48
2022-09-04T01:18:07.602Z,16.38
2022-09-04T01:21:30.938Z,16.46
2022-09-04T01:24:57.100Z,16.22
2022-09-04T01:28:06.669Z,16.11
2022-09-04T01:31:17.697Z,16.13
2022-09-04T01:34:35.328Z,16.14
2022-09-04T01:37:50.918Z,16.31
2022-09-04T01:41:00.279Z,16.24
2022-09-04T01:44:07.392Z,16.36
2022-09-04T01:47:16.445Z,16.30
2022-09-04T01:50:22.846Z,16.16
2022-09-04T01:53:27.490Z,16.12
2022-09-04T01:56:44.173Z,16.11
2022-09-04T02:00:02.517Z,15.99
2022-09-04T02:03:16.651Z,15.86
2022-09-04T02:06:27.783Z,15.70
2022-09-04T02:09:37.944Z,15.63
2022-09-04T02:12:51.236Z,15.71
2022-09-04T02:16:07.270Z,15.71
2022-09-04T02:19:30.086Z,15.67
2022-09-04T02:22:42.110Z,15.85
2022-09-04T02:25:52.090Z,15.78
2022-09-04T02:29:04.499Z,15.70
2022-09-04T02:32:18.460Z,15.63
2022-09-04T02:35:29.785Z,15.65
2022-09-04T02:38:45.737Z,15.59
2022-09-04T02:41:59.180Z,15.48
2022-09-04T02:45:14.818Z,15.55
2022-09-04T02:48:29.395Z,15.59
2022-09-04T02:51:47.421Z,15.56
2022-09-04T02:55:12.762Z,15.63
2022-09-04T02:58:26.071Z,15.63
2022-09-04T03:01:38.620Z,15.79
2022-09-04T03:04:50.026Z,15.88
2022-09-04T03:08:01.273Z,15.77
2022-09-04T03:11:09.882Z,15.69
2022-09-04T03:14:21.015Z,15.80
2022-09-04T03:17:30.820Z,15.70
2022-09-04T03:20:40.699Z,15.67
2022-09-04T03:23:50.282Z,15.80
2022-09-04T03:26:55.427Z,15.74
2022-09-04T03:30:04.104Z,15.82
2022-09-04T03:33:14.639Z,15.81
2022-09-04T03:36:29.530Z,15.81
2022-09-04T03:39:41.659Z,15.87
2022-09-04T03:42:57.611Z,15.87
2022-09-04T03:46:14.121Z,15.92
2022-09-04T03:49:31.497Z,15.97
2022-09-04T03:52:49.222Z,15.75
2022-09-04T03:56:24.363Z,15.61
2022-09-04T03:59:42.373Z,15.83
2022-09-04T04:03:09.054Z,15.70
2022-09-04T04:06:23.538Z,15.79
2022-09-04T04:09:55.754Z,15.80
2022-09-04T04:13:12.684Z,15.55
2022-09-04T04:16:31.263Z,15.41
2022-09-04T04:19:50.547Z,15.25
2022-09-04T04:23:09.134Z,15.21
2022-09-04T04:26:22.569Z,15.27
2022-09-04T04:29:47.426Z,15.37
2022-09-04T04:33:15.298Z,15.18
2022-09-04T04:36:29.978Z,15.19
2022-09-04T04:39:39.359Z,15.03
2022-09-04T04:42:53.341Z,15.08
2022-09-04T04:46:02.350Z,15.02
2022-09-04T04:49:20.358Z,14.91
2022-09-04T04:52:33.905Z,14.88
2022-09-04T04:55:42.976Z,14.87
2022-09-04T04:58:59.804Z,15.02
2022-09-04T05:02:11.999Z,14.96
2022-09-04T05:05:22.509Z,14.73
2022-09-04T05:08:37.996Z,14.70
2022-09-04T05:11:53.465Z,14.57
2022-09-04T05:15:06.177Z,14.52
2022-09-04T05:18:17.352Z,14.53
2022-09-04T05:21:26.132Z,14.53
2022-09-04T05:24:36.341Z,14.52
2022-09-04T05:27:58.425Z,14.61
2022-09-04T05:31:15.046Z,14.67
2022-09-04T05:34:28.073Z,14.72
2022-09-04T05:37:38.819Z,14.78
2022-09-04T05:41:02.096Z,14.89
2022-09-04T05:44:30.916Z,14.95
2022-09-04T05:47:46.966Z,15.02
2022-09-04T05:50:59.551Z,15.14
2022-09-04T05:54:37.945Z,15.23
2022-09-04T05:57:52.023Z,15.30
2022-09-04T06:01:08.084Z,15.39
2022-09-04T06:04:43.938Z,15.55
2022-09-04T06:07:56.147Z,15.64
2022-09-04T06:11:08.389Z,15.71
2022-09-04T06:14:31.784Z,15.83
2022-09-04T06:17:59.733Z,15.98
2022-09-04T06:21:22.944Z,16.11
2022-09-04T06:24:51.686Z,16.20
2022-09-04T06:28:21.456Z,16.35
2022-09-04T06:31:49.234Z,16.43
2022-09-04T06:35:09.530Z,16.57
2022-09-04T06:38:37.820Z,16.63
2022-09-04T06:41:55.259Z,16.74
2022-09-04T06:45:12.859Z,16.86
2022-09-04T06:48:29.034Z,17.02
2022-09-04T06:51:44.169Z,17.08
2022-09-04T06:54:59.409Z,17.34
2022-09-04T06:58:25.703Z,17.31
2022-09-04T07:01:40.701Z,17.57
2022-09-04T07:04:56.063Z,17.67
2022-09-04T07:08:10.775Z,17.76
2022-09-04T07:11:24.783Z,17.89
2022-09-04T07:14:43.916Z,18.04
2022-09-04T07:18:01.233Z,18.09
2022-09-04T07:21:12.262Z,18.20
2022-09-04T07:24:49.382Z,18.35
2022-09-04T07:28:08.576Z,18.38
2022-09-04T07:31:18.075Z,18.46
2022-09-04T07:34:27.932Z,18.58
2022-09-04T07:37:39.946Z,18.73
2022-09-04T07:40:47.510Z,18.68
2022-09-04T07:43:59.395Z,18.71
2022-09-04T07:47:12.689Z,18.81
2022-09-04T07:50:19.952Z,19.04
2022-09-04T07:53:31.848Z,19.17
2022-09-04T07:56:54.654Z,19.22
2022-09-04T08:00:07.452Z,19.37
2022-09-04T08:03:29.992Z,19.36
2022-09-04T08:06:38.921Z,19.47
2022-09-04T08:10:08.649Z,19.50
2022-09-04T08:13:26.867Z,19.47
2022-09-04T08:16:42.083Z,19.54
2022-09-04T08:19:54.794Z,19.66
2022-09-04T08:23:10.432Z,19.50
2022-09-04T08:26:26.123Z,19.67
2022-09-04T08:29:43.920Z,19.63
2022-09-04T08:33:18.973Z,19.85
2022-09-04T08:36:31.734Z,19.89
2022-09-04T08:39:41.233Z,20.08
2022-09-04T08:43:06.481Z,20.16
2022-09-04T08:46:31.779Z,20.29
2022-09-04T08:50:09.793Z,20.26
2022-09-04T08:53:57.634Z,20.56
2022-09-04T08:57:22.305Z,20.63
2022-09-04T09:00:33.088Z,20.74
2022-09-04T09:04:04.095Z,20.75
2022-09-04T09:07:36.530Z,20.79
2022-09-04T09:11:02.185Z,20.97
2022-09-04T09:14:28.864Z,21.05
2022-09-04T09:17:39.508Z,21.00
2022-09-04T09:20:53.837Z,21.11
2022-09-04T09:24:22.868Z,21.21
2022-09-04T09:27:55.024Z,21.33
2022-09-04T09:31:42.799Z,21.41
2022-09-04T09:35:24.137Z,21.48
2022-09-04T09:39:03.147Z,21.31
2022-09-04T09:42:32.091Z,21.49
2022-09-04T09:46:06.495Z,21.50
2022-09-04T09:49:57.155Z,21.62
2022-09-04T09:53:36.211Z,22.04
2022-09-04T09:57:29.658Z,21.99
2022-09-04T10:00:48.403Z,22.10
2022-09-04T10:04:16.925Z,22.22
2022-09-04T10:07:58.180Z,22.09
2022-09-04T10:11:36.825Z,22.22
2022-09-04T10:15:25.847Z,22.27
2022-09-04T10:18:57.665Z,22.16
2022-09-04T10:22:24.262Z,22.27
2022-09-04T10:26:10.457Z,22.50
2022-09-04T10:29:45.644Z,22.51
2022-09-04T10:33:26.486Z,22.34
2022-09-04T10:36:41.490Z,22.25
2022-09-04T10:40:15.135Z,22.46
2022-09-04T10:43:29.344Z,22.56
2022-09-04T10:46:40.828Z,22.81
2022-09-04T10:50:02.288Z,22.99
2022-09-04T10:53:32.239Z,22.93
2022-09-04T10:56:47.180Z,22.91
2022-09-04T11:00:02.683Z,23.06
2022-09-04T11:03:27.324Z,23.03
2022-09-04T11:06:59.535Z,23.04
2022-09-04T11:10:20.410Z,23.11
2022-09-04T11:13:53.504Z,23.29
2022-09-04T11:17:21.096Z,23.20
2022-09-04T11:21:08.924Z,23.13
2022-09-04T11:24:47.301Z,22.95
2022-09-04T11:28:47.859Z,22.97
2022-09-04T11:32:12.229Z,23.14
2022-09-04T11:35:49.369Z,22.98
2022-09-04T11:39:29.450Z,22.86
2022-09-04T11:42:41.454Z,22.96
2022-09-04T11:46:14.688Z,22.91
2022-09-04T11:49:50.558Z,22.89
2022-09-04T11:53:20.270Z,22.87
2022-09-04T11:56:46.990Z,22.90
2022-09-04T12:00:09.506Z,23.06
2022-09-04T12:03:50.833Z,22.95
2022-09-04T12:07:14.228Z,22.95
2022-09-04T12:10:27.699Z,22.93
2022-09-04T12:14:09.526Z,23.14
2022-09-04T12:17:48.467Z,23.03
2022-09-04T12:21:18.290Z,23.09
2022-09-04T12:24:50.684Z,22.98
2022-09-04T12:28:34.887Z,22.98
2022-09-04T12:32:07.149Z,23.09
2022-09-04T12:35:54.555Z,23.10
2022-09-04T12:39:14.249Z,23.12
2022-09-04T12:42:23.700Z,23.12
2022-09-04T12:45:36.590Z,23.13
2022-09-04T12:48:48.172Z,23.50
2022-09-04T12:51:56.940Z,23.52
2022-09-04T12:55:11.219Z,23.39
2022-09-04T12:58:31.289Z,23.39
2022-09-04T13:01:45.249Z,23.35
2022-09-04T13:04:58.351Z,23.42
2022-09-04T13:08:19.081Z,23.42
2022-09-04T13:11:41.134Z,23.33
2022-09-04T13:15:20.063Z,23.45
2022-09-04T13:18:34.895Z,23.28
2022-09-04T13:22:03.180Z,23.32
2022-09-04T13:25:14.712Z,23.27
2022-09-04T13:28:30.316Z,23.28
2022-09-04T13:31:48.065Z,23.27
2022-09-04T13:35:17.373Z,23.21
2022-09-04T13:38:37.251Z,23.21
2022-09-04T13:41:56.988Z,23.23
2022-09-04T13:45:06.587Z,23.16
2022-09-04T13:48:15.757Z,23.07
2022-09-04T13:51:24.090Z,23.17
2022-09-04T13:54:31.484Z,23.17
2022-09-04T13:57:40.978Z,23.08
2022-09-04T14:00:46.922Z,23.07
2022-09-04T14:03:55.222Z,23.06
2022-09-04T14:07:07.113Z,23.03
2022-09-04T14:10:13.720Z,23.07
2022-09-04T14:13:37.694Z,23.12
2022-09-04T14:16:43.937Z,23.08
2022-09-04T14:19:57.651Z,23.05
2022-09-04T14:23:10.725Z,23.06
2022-09-04T14:26:26.665Z,23.01
2022-09-04T14:29:38.593Z,22.97
2022-09-04T14:32:57.719Z,22.96
2022-09-04T14:36:14.964Z,23.02
2022-09-04T14:39:24.455Z,23.03
2022-09-04T14:42:42.891Z,23.10
2022-09-04T14:46:07.175Z,23.01
2022-09-04T14:49:16.314Z,23.04
2022-09-04T14:52:24.884Z,23.06
2022-09-04T14:55:30.292Z,23.02
2022-09-04T14:58:38.134Z,23.04
2022-09-04T15:02:01.679Z,23.06
2022-09-04T15:05:10.790Z,23.04
2022-09-04T15:08:28.881Z,23.03
2022-09-04T15:11:34.864Z,23.01
2022-09-04T15:14:39.321Z,22.98
2022-09-04T15:17:51.641Z,22.97
2022-09-04T15:20:59.277Z,23.00
2022-09-04T15:24:13.087Z,22.99
2022-09-04T15:27:21.279Z,22.97
2022-09-04T15:30:29.013Z,23.00
2022-09-04T15:33:31.969Z,22.99
2022-09-04T15:36:36.162Z,22.93
2022-09-04T15:39:50.492Z,22.85
2022-09-04T15:43:00.255Z,22.81
2022-09-04T15:46:06.767Z,22.77
2022-09-04T15:49:25.426Z,22.69
2022-09-04T15:52:40.369Z,22.72
2022-09-04T15:55:48.440Z,22.69
2022-09-04T15:58:57.771Z,22.71
2022-09-04T16:02:11.728Z,22.69
2022-09-04T16:05:23.736Z,22.71
2022-09-04T16:08:37.586Z,22.65
2022-09-04T16:11:46.555Z,22.64
2022-09-04T16:14:53.582Z,22.68
2022-09-04T16:17:58.640Z,22.67
2022-09-04T16:21:06.289Z,22.65
2022-09-04T16:24:15.289Z,22.60
2022-09-04T16:27:23.660Z,22.54
2022-09-04T16:30:33.082Z,22.50
2022-09-04T16:33:40.821Z,22.38
2022-09-04T16:36:48.284Z,22.44
2022-09-04T16:40:01.590Z,22.41
2022-09-04T16:43:17.484Z,22.38
2022-09-04T16:46:27.592Z,22.32
2022-09-04T16:49:40.043Z,22.30
2022-09-04T16:53:13.567Z,22.27
2022-09-04T16:56:26.443Z,22.25
2022-09-04T16:59:35.734Z,22.25
2022-09-04T17:02:45.299Z,22.19
2022-09-04T17:05:52.473Z,22.21
2022-09-04T17:09:05.360Z,22.23
2022-09-04T17:12:25.809Z,22.21
2022-09-04T17:15:38.039Z,22.19
2022-09-04T17:18:49.513Z,22.17
2022-09-04T17:27:28.050Z,22.01
2022-09-04T17:29:17.347Z,21.89
2022-09-04T17:29:37.293Z,21.80
2022-09-04T17:39:16.861Z,21.66
2022-09-04T17:40:41.634Z,21.67
2022-09-04T17:40:50.981Z,21.64
2022-09-04T17:43:27.391Z,21.57
2022-09-04T17:46:37.089Z,21.47
2022-09-04T17:49:49.225Z,21.43
2022-09-04T17:52:59.329Z,21.34
2022-09-04T17:56:15.466Z,21.23
2022-09-04T17:59:24.924Z,21.23
2022-09-04T18:02:36.777Z,21.15
2022-09-04T18:05:53.604Z,21.01
2022-09-04T18:09:10.841Z,21.02
2022-09-04T18:12:23.877Z,20.99
2022-09-04T18:15:35.527Z,20.93
2022-09-04T18:18:40.502Z,20.88
2022-09-04T18:22:25.683Z,20.78
2022-09-04T18:25:19.117Z,20.77
2022-09-04T18:28:29.487Z,20.76
2022-09-04T18:37:07.429Z,20.68
2022-09-04T18:37:11.568Z,20.69
2022-09-04T18:38:44.192Z,20.57
2022-09-04T18:47:30.598Z,20.49
2022-09-04T18:50:32.967Z,20.26
2022-09-04T18:50:38.248Z,20.31
2022-09-04T18:52:51.471Z,20.05
2022-09-04T18:56:03.022Z,20.09
2022-09-04T18:59:11.813Z,19.82
2022-09-04T19:02:21.290Z,19.57
2022-09-04T19:05:32.915Z,19.49
2022-09-04T19:08:53.089Z,19.57
2022-09-04T19:12:03.073Z,19.43
2022-09-04T19:15:22.825Z,19.43
2022-09-04T19:18:50.068Z,19.39
2022-09-04T19:21:58.704Z,19.34
2022-09-04T19:25:06.068Z,19.39
2022-09-04T19:28:14.383Z,19.29
2022-09-04T19:31:27.765Z,19.38
2022-09-04T19:34:41.455Z,19.40
2022-09-04T19:39:41.407Z,19.35
2022-09-04T19:45:54.607Z,19.32
2022-09-04T19:46:16.922Z,18.98
2022-09-04T19:48:32.311Z,18.94
2022-09-04T19:53:32.277Z,18.67
2022-09-04T19:55:23.777Z,18.54
2022-09-04T19:58:35.609Z,18.42
2022-09-04T20:01:51.235Z,18.47
2022-09-04T20:05:03.943Z,18.33
2022-09-04T20:08:17.962Z,18.28
2022-09-04T20:11:34.777Z,18.34
2022-09-04T20:14:44.935Z,18.21
2022-09-04T20:18:12.666Z,18.14
2022-09-04T20:21:26.852Z,18.14
2022-09-04T20:24:39.831Z,18.11
2022-09-04T20:27:51.808Z,17.94
2022-09-04T20:31:35.342Z,17.86
2022-09-04T20:34:49.569Z,17.73
2022-09-04T20:37:57.237Z,17.62
2022-09-04T20:41:09.375Z,17.48
2022-09-04T20:44:22.302Z,17.42
2022-09-04T20:52:45.208Z,17.26
2022-09-04T20:52:54.579Z,17.26
2022-09-04T20:54:39.531Z,17.10
2022-09-04T21:03:07.241Z,17.05
2022-09-04T21:03:15.216Z,16.88
2022-09-04T21:05:32.688Z,16.78
2022-09-04T21:08:50.003Z,16.88
2022-09-04T21:11:56.780Z,16.90
2022-09-04T21:15:08.031Z,16.92
2022-09-04T21:18:29.479Z,17.00
2022-09-04T21:21:50.859Z,17.05
2022-09-04T21:25:24.486Z,16.95
2022-09-04T21:29:10.656Z,17.00
2022-09-04T21:32:29.904Z,16.96
2022-09-04T21:35:37.010Z,16.94
2022-09-04T21:39:13.122Z,16.88
2022-09-04T21:42:51.032Z,16.67
2022-09-04T21:46:07.991Z,16.70
2022-09-04T21:49:55.538Z,16.79
2022-09-04T21:53:27.773Z,16.70
2022-09-04T22:02:29.701Z,16.77
2022-09-04T22:02:41.885Z,16.69
2022-09-04T22:03:55.015Z,16.71
2022-09-04T22:08:15.116Z,16.70
2022-09-04T22:13:46.217Z,16.74
2022-09-04T22:14:26.079Z,16.56
2022-09-04T22:17:46.070Z,16.55
2022-09-04T22:20:55.308Z,16.43
2022-09-04T22:24:28.221Z,16.42
2022-09-04T22:28:08.931Z,16.43
2022-09-04T22:31:50.990Z,16.37
2022-09-04T22:35:47.832Z,16.47
2022-09-04T22:39:19.100Z,16.38
2022-09-04T22:42:51.493Z,16.31
2022-09-04T22:46:30.573Z,16.24
2022-09-04T22:50:03.488Z,16.19
2022-09-04T22:53:35.298Z,16.23
2022-09-04T22:56:52.433Z,16.27
2022-09-04T23:00:11.853Z,16.22
2022-09-04T23:03:33.059Z,16.20
2022-09-04T23:13:43.716Z,16.20
2022-09-04T23:13:53.691Z,16.22
2022-09-04T23:14:27.703Z,16.24
2022-09-04T23:20:30.345Z,16.13
2022-09-04T23:26:39.193Z,16.20
2022-09-04T23:26:44.828Z,16.16
2022-09-04T23:29:10.270Z,16.09
2022-09-04T23:32:31.762Z,16.18
2022-09-04T23:35:43.843Z,16.14
2022-09-04T23:39:17.002Z,16.12
2022-09-04T23:42:38.978Z,16.11
2022-09-04T23:46:02.019Z,16.04
2022-09-04T23:49:45.002Z,16.19
2022-09-04T23:53:00.124Z,16.12
2022-09-04T23:56:20.118Z,16.02
2022-09-04T23:59:37.484Z,16.01
